createdAt,value
2023-05-02T00:01:59.661Z,86.32
2023-05-02T00:06:12.392Z,86.75
2023-05-02T00:10:24.729Z,86.99
2023-05-02T00:14:37.067Z,86.80
2023-05-02T00:18:49.616Z,86.67
2023-05-02T00:23:02.039Z,86.92
2023-05-02T00:27:14.901Z,87.15
2023-05-02T00:31:27.615Z,87.01
2023-05-02T00:35:40.398Z,87.10
2023-05-02T00:39:52.737Z,86.80
2023-05-02T00:44:05.344Z,87.16
2023-05-02T00:48:20.762Z,87.16
2023-05-02T00:52:33.849Z,87.57
2023-05-02T00:56:46.969Z,87.55
2023-05-02T01:01:10.914Z,87.66
2023-05-02T01:05:33.374Z,87.29
2023-05-02T01:10:08.432Z,87.84
2023-05-02T01:14:22.746Z,87.71
2023-05-02T01:18:39.703Z,87.64
2023-05-02T01:22:53.235Z,88.15
2023-05-02T01:27:30.426Z,87.90
2023-05-02T01:31:46.799Z,87.91
2023-05-02T01:36:01.950Z,87.92
2023-05-02T01:40:18.646Z,87.72
2023-05-02T01:44:36.330Z,87.52
2023-05-02T01:48:52.378Z,87.96
2023-05-02T01:53:05.427Z,87.74
2023-05-02T01:57:19.630Z,88.45
2023-05-02T02:01:32.490Z,88.64
2023-05-02T02:05:46.823Z,89.11
2023-05-02T02:10:00.276Z,89.33
2023-05-02T02:14:37.090Z,89.25
2023-05-02T02:18:49.616Z,89.58
2023-05-02T02:23:05.828Z,90.35
2023-05-02T02:27:20.644Z,90.76
2023-05-02T02:31:34.596Z,91.01
2023-05-02T02:36:29.721Z,91.12
2023-05-02T02:40:47.700Z,91.53
2023-05-02T02:45:30.375Z,91.96
2023-05-02T02:49:56.784Z,92.08
2023-05-02T02:54:28.722Z,91.99
2023-05-02T02:58:54.718Z,91.63
2023-05-02T03:03:08.607Z,92.18
2023-05-02T03:07:21.279Z,91.66
2023-05-02T03:11:34.702Z,91.50
2023-05-02T03:15:54.249Z,91.10
2023-05-02T03:20:13.722Z,90.39
2023-05-02T03:24:27.895Z,90.89
2023-05-02T03:28:41.619Z,90.94
2023-05-02T03:32:54.340Z,90.73
2023-05-02T03:37:07.422Z,90.19
2023-05-02T03:41:21.236Z,90.45
2023-05-02T03:45:40.371Z,90.29
2023-05-02T03:49:53.512Z,90.19
2023-05-02T03:54:07.798Z,89.98
2023-05-02T03:58:21.286Z,90.50
2023-05-02T04:02:33.979Z,91.37
2023-05-02T04:06:47.050Z,92.27
2023-05-02T04:11:00.072Z,92.16
2023-05-02T04:15:12.832Z,92.55
2023-05-02T04:19:25.629Z,92.46
2023-05-02T04:23:38.269Z,92.26
2023-05-02T04:27:51.320Z,91.66
2023-05-02T04:32:07.731Z,90.96
2023-05-02T04:36:20.182Z,91.13
2023-05-02T04:40:34.162Z,91.16
2023-05-02T04:44:50.606Z,90.24
2023-05-02T04:49:03.203Z,89.70
2023-05-02T04:53:15.893Z,88.82
2023-05-02T04:57:28.424Z,88.56
2023-05-02T05:01:45.661Z,87.86
2023-05-02T05:05:58.238Z,87.58
2023-05-02T05:10:11.892Z,87.71
2023-05-02T05:14:31.725Z,86.66
2023-05-02T05:18:44.430Z,86.93
2023-05-02T05:22:59.568Z,85.37
2023-05-02T05:27:12.874Z,77.57
2023-05-02T05:31:25.608Z,63.99
2023-05-02T05:35:41.960Z,64.22
2023-05-02T05:39:54.955Z,60.05
2023-05-02T05:44:07.930Z,59.01
2023-05-02T05:48:20.991Z,73.35
2023-05-02T05:52:33.978Z,78.78
2023-05-02T05:56:48.846Z,79.60
2023-05-02T06:01:04.541Z,79.30
2023-05-02T06:05:17.783Z,81.37
2023-05-02T06:09:30.335Z,82.26
2023-05-02T06:13:43.069Z,80.78
2023-05-02T06:17:55.628Z,79.71
2023-05-02T06:22:08.032Z,78.07
2023-05-02T06:26:20.465Z,77.81
2023-05-02T06:30:33.126Z,77.13
2023-05-02T06:34:46.177Z,76.16
2023-05-02T06:39:00.856Z,77.69
2023-05-02T06:43:14.034Z,77.96
2023-05-02T06:47:26.740Z,76.97
2023-05-02T06:51:39.168Z,74.78
2023-05-02T06:55:55.283Z,75.40
2023-05-02T07:00:08.444Z,76.00
2023-05-02T07:04:23.614Z,73.21
2023-05-02T07:08:38.148Z,73.75
2023-05-02T07:12:50.549Z,76.16
2023-05-02T07:17:03.147Z,76.03
2023-05-02T07:21:15.689Z,75.84
2023-05-02T07:25:28.219Z,75.93
2023-05-02T07:29:42.767Z,76.54
2023-05-02T07:33:55.073Z,75.82
2023-05-02T07:38:07.518Z,73.86
2023-05-02T07:42:19.873Z,77.28
2023-05-02T07:46:32.296Z,78.15
2023-05-02T07:50:44.980Z,78.57
2023-05-02T07:54:57.344Z,80.61
2023-05-02T07:59:10.153Z,82.29
2023-05-02T08:03:24.336Z,79.93
2023-05-02T08:07:38.670Z,82.21
2023-05-02T08:11:51.161Z,75.49
2023-05-02T08:16:03.883Z,72.03
2023-05-02T08:20:16.557Z,68.75
2023-05-02T08:24:29.089Z,69.39
2023-05-02T08:28:41.525Z,65.67
2023-05-02T08:32:54.055Z,63.94
2023-05-02T08:37:10.605Z,63.33
2023-05-02T08:41:23.454Z,64.07
2023-05-02T08:45:40.498Z,59.12
2023-05-02T08:49:55.968Z,58.22
2023-05-02T08:54:10.423Z,56.05
2023-05-02T08:58:22.968Z,57.12
2023-05-02T09:02:51.318Z,59.16
2023-05-02T09:07:03.711Z,59.26
2023-05-02T09:11:17.750Z,58.84
2023-05-02T09:15:30.118Z,59.06
2023-05-02T09:19:42.597Z,56.75
2023-05-02T09:24:04.213Z,50.54
2023-05-02T09:28:16.778Z,42.02
2023-05-02T09:32:45.779Z,37.68
2023-05-02T09:36:58.623Z,33.99
2023-05-02T09:41:11.579Z,35.42
2023-05-02T09:45:27.484Z,33.86
2023-05-02T09:49:41.248Z,33.91
2023-05-02T09:53:53.733Z,34.43
2023-05-02T09:58:07.006Z,39.20
2023-05-02T10:02:22.059Z,34.14
2023-05-02T10:06:36.924Z,46.97
2023-05-02T10:10:55.134Z,46.16
2023-05-02T10:15:13.034Z,46.65
2023-05-02T10:19:30.328Z,48.58
2023-05-02T10:23:46.732Z,49.10
2023-05-02T10:28:00.133Z,50.66
2023-05-02T10:32:15.279Z,49.55
2023-05-02T10:36:28.860Z,48.22
2023-05-02T10:40:42.834Z,48.14
2023-05-02T10:44:55.164Z,48.84
2023-05-02T10:49:09.538Z,44.94
2023-05-02T10:53:37.970Z,45.00
2023-05-02T10:57:59.379Z,43.62
2023-05-02T11:02:24.414Z,44.81
2023-05-02T11:06:58.054Z,45.01
2023-05-02T11:11:42.793Z,42.63
2023-05-02T11:15:56.376Z,41.50
2023-05-02T11:20:09.001Z,44.00
2023-05-02T11:24:54.100Z,43.55
2023-05-02T11:29:06.458Z,42.93
2023-05-02T11:33:20.404Z,43.06
2023-05-02T11:37:33.659Z,44.38
2023-05-02T11:41:48.605Z,41.09
2023-05-02T11:46:02.710Z,41.83
2023-05-02T11:50:16.145Z,39.77
2023-05-02T11:54:29.452Z,31.83
2023-05-02T11:58:41.919Z,29.42
2023-05-02T12:02:54.552Z,29.89
2023-05-02T12:07:08.084Z,29.16
2023-05-02T12:11:21.850Z,29.13
2023-05-02T12:15:34.555Z,30.14
2023-05-02T12:19:46.953Z,30.78
2023-05-02T12:24:00.522Z,30.11
2023-05-02T12:28:13.037Z,29.98
2023-05-02T12:32:32.827Z,29.46
2023-05-02T12:36:45.693Z,29.98
2023-05-02T12:40:58.148Z,29.97
2023-05-02T12:45:19.696Z,29.46
2023-05-02T12:49:32.178Z,29.26
2023-05-02T12:53:46.204Z,30.37
2023-05-02T12:58:06.284Z,31.29
2023-05-02T13:02:18.720Z,31.84
2023-05-02T13:06:31.561Z,32.93
2023-05-02T13:10:44.291Z,32.53
2023-05-02T13:14:57.038Z,31.65
2023-05-02T13:19:09.794Z,32.49
2023-05-02T13:23:22.355Z,32.02
2023-05-02T13:27:34.836Z,32.70
2023-05-02T13:31:47.176Z,32.64
2023-05-02T13:35:59.682Z,33.16
2023-05-02T13:40:12.851Z,33.10
2023-05-02T13:44:25.292Z,32.63
2023-05-02T13:48:37.740Z,33.11
2023-05-02T13:52:50.907Z,33.09
2023-05-02T13:57:03.413Z,33.72
2023-05-02T14:01:16.129Z,34.84
2023-05-02T14:05:28.548Z,34.20
2023-05-02T14:09:41.002Z,35.21
2023-05-02T14:13:53.971Z,34.64
2023-05-02T14:18:06.582Z,34.17
2023-05-02T14:22:19.084Z,35.62
2023-05-02T14:26:31.888Z,36.88
2023-05-02T14:30:44.298Z,36.86
2023-05-02T14:34:56.691Z,37.60
2023-05-02T14:39:09.819Z,38.80
2023-05-02T14:43:22.261Z,39.77
2023-05-02T14:47:35.013Z,40.17
2023-05-02T14:51:47.919Z,39.82
2023-05-02T14:56:00.233Z,39.92
2023-05-02T15:00:13.289Z,38.85
2023-05-02T15:04:27.508Z,40.23
2023-05-02T15:08:40.910Z,40.42
2023-05-02T15:12:53.393Z,41.60
2023-05-02T15:17:05.926Z,42.04
2023-05-02T15:21:18.268Z,43.06
2023-05-02T15:25:31.221Z,45.14
2023-05-02T15:29:43.561Z,47.77
2023-05-02T15:33:56.013Z,47.96
2023-05-02T15:38:09.312Z,46.65
2023-05-02T15:42:21.771Z,46.46
2023-05-02T15:46:34.182Z,46.72
2023-05-02T15:50:47.462Z,46.34
2023-05-02T15:55:01.957Z,47.49
2023-05-02T15:59:14.370Z,47.02
2023-05-02T16:03:27.020Z,48.41
2023-05-02T16:07:39.614Z,47.45
2023-05-02T16:11:51.964Z,46.32
2023-05-02T16:16:04.796Z,46.22
2023-05-02T16:20:18.517Z,45.82
2023-05-02T16:24:34.373Z,45.08
2023-05-02T16:28:46.770Z,45.37
2023-05-02T16:32:59.740Z,46.08
2023-05-02T16:37:12.205Z,45.81
2023-05-02T16:41:24.575Z,46.22
2023-05-02T16:45:37.012Z,46.83
2023-05-02T16:49:54.074Z,46.36
2023-05-02T16:54:06.580Z,46.00
2023-05-02T16:58:19.470Z,45.50
2023-05-02T17:02:31.886Z,45.51
2023-05-02T17:06:44.536Z,45.15
2023-05-02T17:10:57.175Z,43.02
2023-05-02T17:15:10.025Z,43.50
2023-05-02T17:19:22.561Z,42.09
2023-05-02T17:23:35.058Z,42.09
2023-05-02T17:27:47.676Z,41.67
2023-05-02T17:32:02.835Z,41.83
2023-05-02T17:36:15.181Z,41.56
2023-05-02T17:40:30.736Z,41.31
2023-05-02T17:44:44.361Z,41.15
2023-05-02T17:48:56.994Z,41.53
2023-05-02T17:53:09.637Z,42.37
2023-05-02T17:57:22.251Z,42.38
2023-05-02T18:01:34.632Z,42.55
2023-05-02T18:05:48.038Z,42.77
2023-05-02T18:10:05.442Z,44.66
2023-05-02T18:14:19.534Z,43.77
2023-05-02T18:18:33.190Z,44.03
2023-05-02T18:22:47.907Z,43.40
2023-05-02T18:27:02.143Z,43.64
2023-05-02T18:31:18.115Z,44.52
2023-05-02T18:35:30.665Z,43.55
2023-05-02T18:39:45.447Z,43.83
2023-05-02T18:44:00.635Z,44.21
2023-05-02T18:48:13.504Z,43.45
2023-05-02T18:52:26.165Z,42.65
2023-05-02T18:56:38.581Z,41.31
2023-05-02T19:00:51.134Z,41.51
2023-05-02T19:05:07.726Z,41.85
2023-05-02T19:09:20.094Z,41.68
2023-05-02T19:13:32.871Z,42.15
2023-05-02T19:17:45.300Z,41.61
2023-05-02T19:21:57.772Z,42.02
2023-05-02T19:26:14.225Z,41.75
2023-05-02T19:30:26.584Z,41.98
2023-05-02T19:34:39.019Z,40.80
2023-05-02T19:38:54.081Z,42.12
2023-05-02T19:43:07.142Z,41.51
2023-05-02T19:47:19.706Z,47.98
2023-05-02T19:51:34.300Z,49.00
2023-05-02T19:55:47.407Z,52.92
2023-05-02T20:00:00.138Z,54.92
2023-05-02T20:04:12.683Z,56.08
2023-05-02T20:08:28.139Z,55.89
2023-05-02T20:12:44.996Z,56.34
2023-05-02T20:17:01.843Z,58.18
2023-05-02T20:21:14.609Z,59.14
2023-05-02T20:25:27.057Z,51.55
2023-05-02T20:29:39.628Z,38.84
2023-05-02T20:33:52.384Z,37.24
2023-05-02T20:38:05.400Z,36.27
2023-05-02T20:42:40.375Z,36.90
2023-05-02T20:47:14.806Z,37.69
2023-05-02T20:51:47.953Z,42.63
2023-05-02T20:56:00.358Z,46.14
2023-05-02T21:00:16.305Z,48.65
2023-05-02T21:04:28.685Z,42.77
2023-05-02T21:08:40.985Z,44.05
2023-05-02T21:12:53.526Z,49.21
2023-05-02T21:17:06.151Z,51.26
2023-05-02T21:21:18.522Z,52.52
2023-05-02T21:25:31.217Z,51.31
2023-05-02T21:29:43.631Z,50.32
2023-05-02T21:33:56.149Z,53.10
2023-05-02T21:38:08.664Z,49.40
2023-05-02T21:42:21.195Z,52.53
2023-05-02T21:46:33.696Z,54.63
2023-05-02T21:50:46.294Z,54.89
2023-05-02T21:54:58.788Z,52.82
2023-05-02T21:59:11.265Z,53.48
2023-05-02T22:03:23.959Z,52.78
2023-05-02T22:07:37.288Z,55.41
2023-05-02T22:11:49.767Z,57.99
2023-05-02T22:16:02.231Z,58.99
2023-05-02T22:20:14.984Z,58.95
2023-05-02T22:24:28.983Z,58.19
2023-05-02T22:28:41.478Z,61.08
2023-05-02T22:32:54.052Z,59.92
2023-05-02T22:37:06.674Z,56.65
2023-05-02T22:41:19.104Z,55.83
2023-05-02T22:45:31.531Z,55.85
2023-05-02T22:49:44.964Z,54.24
2023-05-02T22:53:57.721Z,53.96
2023-05-02T22:58:10.257Z,53.38
2023-05-02T23:02:23.437Z,53.22
2023-05-02T23:06:36.315Z,52.75
2023-05-02T23:10:48.678Z,54.63
2023-05-02T23:15:01.085Z,55.51
2023-05-02T23:19:13.459Z,54.10
2023-05-02T23:23:26.756Z,54.04
2023-05-02T23:27:39.117Z,51.32
2023-05-02T23:31:53.991Z,48.24
2023-05-02T23:36:07.492Z,47.56
2023-05-02T23:40:20.020Z,48.52
2023-05-02T23:44:32.501Z,48.92
2023-05-02T23:48:44.955Z,48.87
2023-05-02T23:52:57.420Z,49.81
2023-05-02T23:57:09.841Z,49.43
